sensor_id;sensor_type;location;lat;lon;timestamp;pressure;altitude;pressure_sealevel;temperature;humidity
75247;BME280;63844;50.042;19.224;2024-01-30T00:16:54;100837.80;;;-3.25;97.26
75247;BME280;63844;50.042;19.224;2024-01-30T00:18:31;100836.89;;;-3.27;97.21
75247;BME280;63844;50.042;19.224;2024-01-30T00:20:08;100832.79;;;-3.33;97.22
75247;BME280;63844;50.042;19.224;2024-01-30T00:21:45;100829.76;;;-3.38;97.14
75247;BME280;63844;50.042;19.224;2024-01-30T00:23:22;100832.23;;;-3.44;97.00
75247;BME280;63844;50.042;19.224;2024-01-30T00:24:59;100827.67;;;-3.47;97.04
75247;BME280;63844;50.042;19.224;2024-01-30T00:26:35;100825.19;;;-3.50;97.04
75247;BME280;63844;50.042;19.224;2024-01-30T00:28:12;100824.67;;;-3.50;97.20
75247;BME280;63844;50.042;19.224;2024-01-30T00:29:48;100824.63;;;-3.52;96.89
75247;BME280;63844;50.042;19.224;2024-01-30T00:31:25;100826.48;;;-3.54;96.79
75247;BME280;63844;50.042;19.224;2024-01-30T00:33:02;100823.80;;;-3.58;96.79
75247;BME280;63844;50.042;19.224;2024-01-30T00:34:39;100821.64;;;-3.62;96.85
75247;BME280;63844;50.042;19.224;2024-01-30T00:36:15;100824.54;;;-3.65;97.15
75247;BME280;63844;50.042;19.224;2024-01-30T00:37:52;100821.77;;;-3.64;96.99
75247;BME280;63844;50.042;19.224;2024-01-30T00:39:29;100823.27;;;-3.68;96.66
75247;BME280;63844;50.042;19.224;2024-01-30T00:41:05;100823.85;;;-3.72;96.70
75247;BME280;63844;50.042;19.224;2024-01-30T00:42:43;100822.79;;;-3.73;96.79
75247;BME280;63844;50.042;19.224;2024-01-30T00:44:20;100823.64;;;-3.74;96.92
75247;BME280;63844;50.042;19.224;2024-01-30T00:45:57;100827.38;;;-3.77;96.37
75247;BME280;63844;50.042;19.224;2024-01-30T00:47:34;100827.66;;;-3.80;96.67
75247;BME280;63844;50.042;19.224;2024-01-30T00:49:11;100826.61;;;-3.80;96.66
75247;BME280;63844;50.042;19.224;2024-01-30T00:50:47;100826.61;;;-3.81;96.36
75247;BME280;63844;50.042;19.224;2024-01-30T00:52:24;100824.17;;;-3.81;96.32
75247;BME280;63844;50.042;19.224;2024-01-30T00:54:00;100823.73;;;-3.85;96.43
75247;BME280;63844;50.042;19.224;2024-01-30T00:55:37;100826.17;;;-3.85;97.05
75247;BME280;63844;50.042;19.224;2024-01-30T00:57:13;100827.71;;;-3.86;96.72
75247;BME280;63844;50.042;19.224;2024-01-30T00:58:50;100819.23;;;-3.86;96.90
75247;BME280;63844;50.042;19.224;2024-01-30T01:00:26;100815.73;;;-3.88;96.70
75247;BME280;63844;50.042;19.224;2024-01-30T01:02:06;100815.19;;;-3.89;96.65
75247;BME280;63844;50.042;19.224;2024-01-30T01:03:42;100813.96;;;-3.90;96.75
75247;BME280;63844;50.042;19.224;2024-01-30T01:05:20;100812.05;;;-3.90;96.37
75247;BME280;63844;50.042;19.224;2024-01-30T01:06:56;100811.70;;;-3.90;96.39
75247;BME280;63844;50.042;19.224;2024-01-30T01:08:33;100809.80;;;-3.90;96.57
75247;BME280;63844;50.042;19.224;2024-01-30T01:10:09;100810.00;;;-3.89;96.73
75247;BME280;63844;50.042;19.224;2024-01-30T01:11:47;100811.94;;;-3.88;96.70
75247;BME280;63844;50.042;19.224;2024-01-30T01:13:24;100811.09;;;-3.87;96.56
75247;BME280;63844;50.042;19.224;2024-01-30T01:15:00;100809.15;;;-3.88;97.15
75247;BME280;63844;50.042;19.224;2024-01-30T01:16:38;100817.42;;;-3.90;96.69
75247;BME280;63844;50.042;19.224;2024-01-30T01:18:15;100812.02;;;-3.91;97.14
75247;BME280;63844;50.042;19.224;2024-01-30T01:19:52;100813.58;;;-3.92;96.88
75247;BME280;63844;50.042;19.224;2024-01-30T01:21:28;100812.77;;;-3.96;96.28
75247;BME280;63844;50.042;19.224;2024-01-30T01:23:05;100810.67;;;-3.98;96.24
75247;BME280;63844;50.042;19.224;2024-01-30T01:24:41;100805.48;;;-3.98;96.37
75247;BME280;63844;50.042;19.224;2024-01-30T01:26:18;100807.90;;;-3.99;95.93
75247;BME280;63844;50.042;19.224;2024-01-30T01:27:54;100801.61;;;-4.01;96.06
75247;BME280;63844;50.042;19.224;2024-01-30T01:29:31;100803.34;;;-4.00;96.27
75247;BME280;63844;50.042;19.224;2024-01-30T01:31:09;100802.80;;;-4.02;95.98
75247;BME280;63844;50.042;19.224;2024-01-30T01:32:48;100805.05;;;-4.02;96.51
75247;BME280;63844;50.042;19.224;2024-01-30T01:34:31;100800.91;;;-4.01;96.71
75247;BME280;63844;50.042;19.224;2024-01-30T01:36:07;100798.97;;;-4.03;96.38
75247;BME280;63844;50.042;19.224;2024-01-30T01:37:44;100795.44;;;-4.07;96.16
75247;BME280;63844;50.042;19.224;2024-01-30T01:39:21;100794.38;;;-4.08;96.12
75247;BME280;63844;50.042;19.224;2024-01-30T01:40:58;100796.92;;;-4.09;96.08
75247;BME280;63844;50.042;19.224;2024-01-30T01:42:35;100791.08;;;-4.09;96.17
75247;BME280;63844;50.042;19.224;2024-01-30T01:44:12;100796.74;;;-4.10;96.13
75247;BME280;63844;50.042;19.224;2024-01-30T01:45:48;100796.54;;;-4.11;96.54
75247;BME280;63844;50.042;19.224;2024-01-30T01:47:25;100792.39;;;-4.11;96.58
75247;BME280;63844;50.042;19.224;2024-01-30T01:49:02;100791.05;;;-4.10;97.18
75247;BME280;63844;50.042;19.224;2024-01-30T01:50:42;100788.23;;;-4.11;96.69
75247;BME280;63844;50.042;19.224;2024-01-30T01:52:19;100790.30;;;-4.12;97.20
75247;BME280;63844;50.042;19.224;2024-01-30T01:53:56;100786.83;;;-4.12;96.80
75247;BME280;63844;50.042;19.224;2024-01-30T01:55:34;100786.08;;;-4.16;96.30
75247;BME280;63844;50.042;19.224;2024-01-30T01:57:12;100785.56;;;-4.15;96.56
75247;BME280;63844;50.042;19.224;2024-01-30T01:58:49;100786.38;;;-4.17;96.47
75247;BME280;63844;50.042;19.224;2024-01-30T02:00:26;100786.20;;;-4.17;96.65
75247;BME280;63844;50.042;19.224;2024-01-30T02:02:03;100780.46;;;-4.18;97.26
75247;BME280;63844;50.042;19.224;2024-01-30T02:03:41;100780.32;;;-4.18;96.42
75247;BME280;63844;50.042;19.224;2024-01-30T02:05:18;100777.71;;;-4.18;96.15
75247;BME280;63844;50.042;19.224;2024-01-30T02:06:55;100779.23;;;-4.20;95.84
75247;BME280;63844;50.042;19.224;2024-01-30T02:08:31;100778.86;;;-4.21;96.12
75247;BME280;63844;50.042;19.224;2024-01-30T02:10:09;100778.50;;;-4.21;96.46
75247;BME280;63844;50.042;19.224;2024-01-30T02:11:48;100773.28;;;-4.23;96.90
75247;BME280;63844;50.042;19.224;2024-01-30T02:13:25;100773.48;;;-4.22;96.88
75247;BME280;63844;50.042;19.224;2024-01-30T02:15:01;100769.82;;;-4.23;96.47
75247;BME280;63844;50.042;19.224;2024-01-30T02:16:38;100772.59;;;-4.23;96.58
75247;BME280;63844;50.042;19.224;2024-01-30T02:18:14;100774.49;;;-4.23;96.77
75247;BME280;63844;50.042;19.224;2024-01-30T02:19:51;100773.77;;;-4.24;96.84
75247;BME280;63844;50.042;19.224;2024-01-30T02:21:28;100767.85;;;-4.26;96.47
75247;BME280;63844;50.042;19.224;2024-01-30T02:23:07;100768.54;;;-4.26;96.58
75247;BME280;63844;50.042;19.224;2024-01-30T02:24:43;100769.55;;;-4.28;96.38
75247;BME280;63844;50.042;19.224;2024-01-30T02:26:20;100768.81;;;-4.30;96.32
75247;BME280;63844;50.042;19.224;2024-01-30T02:27:56;100771.05;;;-4.30;96.22
75247;BME280;63844;50.042;19.224;2024-01-30T02:29:33;100774.54;;;-4.29;95.96
75247;BME280;63844;50.042;19.224;2024-01-30T02:31:10;100775.70;;;-4.31;95.86
75247;BME280;63844;50.042;19.224;2024-01-30T02:32:46;100775.48;;;-4.33;96.61
75247;BME280;63844;50.042;19.224;2024-01-30T02:34:24;100775.67;;;-4.32;96.59
75247;BME280;63844;50.042;19.224;2024-01-30T02:36:01;100776.16;;;-4.33;96.23
75247;BME280;63844;50.042;19.224;2024-01-30T02:37:37;100774.76;;;-4.35;96.10
75247;BME280;63844;50.042;19.224;2024-01-30T02:39:14;100775.75;;;-4.36;96.30
75247;BME280;63844;50.042;19.224;2024-01-30T02:40:51;100781.11;;;-4.36;96.81
75247;BME280;63844;50.042;19.224;2024-01-30T02:42:27;100779.73;;;-4.36;96.41
75247;BME280;63844;50.042;19.224;2024-01-30T02:44:04;100779.29;;;-4.40;96.10
75247;BME280;63844;50.042;19.224;2024-01-30T02:45:40;100783.04;;;-4.42;95.85
75247;BME280;63844;50.042;19.224;2024-01-30T02:47:17;100782.45;;;-4.45;96.16
75247;BME280;63844;50.042;19.224;2024-01-30T02:48:53;100785.56;;;-4.45;96.06
75247;BME280;63844;50.042;19.224;2024-01-30T02:50:30;100782.25;;;-4.46;96.37
75247;BME280;63844;50.042;19.224;2024-01-30T02:52:06;100782.20;;;-4.48;96.17
75247;BME280;63844;50.042;19.224;2024-01-30T02:53:43;100781.27;;;-4.51;96.71
75247;BME280;63844;50.042;19.224;2024-01-30T02:55:19;100782.48;;;-4.51;96.76
75247;BME280;63844;50.042;19.224;2024-01-30T02:56:57;100775.44;;;-4.50;96.56
75247;BME280;63844;50.042;19.224;2024-01-30T02:58:33;100779.25;;;-4.49;96.67
75247;BME280;63844;50.042;19.224;2024-01-30T03:00:10;100777.35;;;-4.49;96.90
75247;BME280;63844;50.042;19.224;2024-01-30T03:01:47;100776.30;;;-4.50;96.57
75247;BME280;63844;50.042;19.224;2024-01-30T03:03:24;100775.05;;;-4.51;96.34
75247;BME280;63844;50.042;19.224;2024-01-30T03:05:00;100775.00;;;-4.53;95.88
75247;BME280;63844;50.042;19.224;2024-01-30T03:06:37;100773.94;;;-4.55;96.40
75247;BME280;63844;50.042;19.224;2024-01-30T03:08:14;100770.11;;;-4.55;96.43
75247;BME280;63844;50.042;19.224;2024-01-30T03:09:50;100773.01;;;-4.57;96.10
75247;BME280;63844;50.042;19.224;2024-01-30T03:11:27;100774.16;;;-4.59;96.41
75247;BME280;63844;50.042;19.224;2024-01-30T03:13:03;100768.82;;;-4.59;96.47
75247;BME280;63844;50.042;19.224;2024-01-30T03:14:40;100764.11;;;-4.61;96.28
75247;BME280;63844;50.042;19.224;2024-01-30T03:16:17;100763.22;;;-4.62;97.05
75247;BME280;63844;50.042;19.224;2024-01-30T03:17:53;100764.24;;;-4.62;96.77
75247;BME280;63844;50.042;19.224;2024-01-30T03:19:30;100763.52;;;-4.64;96.62
75247;BME280;63844;50.042;19.224;2024-01-30T03:21:06;100761.96;;;-4.64;96.46
75247;BME280;63844;50.042;19.224;2024-01-30T03:22:43;100758.20;;;-4.63;96.70
75247;BME280;63844;50.042;19.224;2024-01-30T03:24:19;100764.35;;;-4.65;96.47
75247;BME280;63844;50.042;19.224;2024-01-30T03:25:56;100759.52;;;-4.65;96.43
75247;BME280;63844;50.042;19.224;2024-01-30T03:27:32;100759.46;;;-4.67;96.10
75247;BME280;63844;50.042;19.224;2024-01-30T03:29:09;100762.23;;;-4.67;96.94
75247;BME280;63844;50.042;19.224;2024-01-30T03:30:45;100762.52;;;-4.69;97.56
75247;BME280;63844;50.042;19.224;2024-01-30T03:32:22;100759.56;;;-4.70;97.23
75247;BME280;63844;50.042;19.224;2024-01-30T03:33:58;100760.00;;;-4.74;97.21
75247;BME280;63844;50.042;19.224;2024-01-30T03:35:35;100759.80;;;-4.75;96.96
75247;BME280;63844;50.042;19.224;2024-01-30T03:37:11;100762.00;;;-4.77;96.46
75247;BME280;63844;50.042;19.224;2024-01-30T03:38:48;100764.77;;;-4.77;96.43
75247;BME280;63844;50.042;19.224;2024-01-30T03:40:24;100762.67;;;-4.78;96.00
75247;BME280;63844;50.042;19.224;2024-01-30T03:42:01;100762.49;;;-4.78;96.40
75247;BME280;63844;50.042;19.224;2024-01-30T03:43:37;100763.87;;;-4.78;96.42
75247;BME280;63844;50.042;19.224;2024-01-30T03:45:13;100765.89;;;-4.80;96.21
75247;BME280;63844;50.042;19.224;2024-01-30T03:46:50;100765.89;;;-4.80;96.36
75247;BME280;63844;50.042;19.224;2024-01-30T03:48:26;100769.30;;;-4.82;96.01
75247;BME280;63844;50.042;19.224;2024-01-30T03:50:03;100767.70;;;-4.84;96.09
75247;BME280;63844;50.042;19.224;2024-01-30T03:51:41;100769.44;;;-4.84;96.24
75247;BME280;63844;50.042;19.224;2024-01-30T03:53:17;100765.62;;;-4.85;96.40
75247;BME280;63844;50.042;19.224;2024-01-30T03:54:54;100765.41;;;-4.85;95.96
75247;BME280;63844;50.042;19.224;2024-01-30T03:56:30;100766.02;;;-4.89;95.91
75247;BME280;63844;50.042;19.224;2024-01-30T03:58:07;100769.61;;;-4.90;96.19
75247;BME280;63844;50.042;19.224;2024-01-30T03:59:43;100774.45;;;-4.90;95.85
75247;BME280;63844;50.042;19.224;2024-01-30T04:01:19;100771.32;;;-4.91;95.99
75247;BME280;63844;50.042;19.224;2024-01-30T04:02:56;100773.38;;;-4.91;96.37
75247;BME280;63844;50.042;19.224;2024-01-30T04:04:32;100772.73;;;-4.90;96.33
75247;BME280;63844;50.042;19.224;2024-01-30T04:06:09;100771.33;;;-4.91;95.76
75247;BME280;63844;50.042;19.224;2024-01-30T04:07:45;100770.28;;;-4.91;95.86
75247;BME280;63844;50.042;19.224;2024-01-30T04:09:22;100772.17;;;-4.92;95.41
75247;BME280;63844;50.042;19.224;2024-01-30T04:11:03;100770.11;;;-4.91;95.50
75247;BME280;63844;50.042;19.224;2024-01-30T04:12:40;100773.20;;;-4.92;95.70
75247;BME280;63844;50.042;19.224;2024-01-30T04:14:16;100771.14;;;-4.91;96.10
75247;BME280;63844;50.042;19.224;2024-01-30T04:15:52;100774.56;;;-4.93;95.80
75247;BME280;63844;50.042;19.224;2024-01-30T04:17:30;100772.48;;;-4.93;95.75
75247;BME280;63844;50.042;19.224;2024-01-30T04:19:07;100771.96;;;-4.92;95.72
75247;BME280;63844;50.042;19.224;2024-01-30T04:20:45;100767.63;;;-4.94;95.87
75247;BME280;63844;50.042;19.224;2024-01-30T04:22:21;100767.08;;;-4.95;95.48
75247;BME280;63844;50.042;19.224;2024-01-30T04:23:58;100768.26;;;-4.96;95.48
75247;BME280;63844;50.042;19.224;2024-01-30T04:25:34;100771.02;;;-4.96;95.62
75247;BME280;63844;50.042;19.224;2024-01-30T04:27:11;100768.74;;;-4.98;96.14
75247;BME280;63844;50.042;19.224;2024-01-30T04:28:47;100769.94;;;-4.98;95.84
75247;BME280;63844;50.042;19.224;2024-01-30T04:30:23;100764.73;;;-4.99;95.96
75247;BME280;63844;50.042;19.224;2024-01-30T04:32:00;100764.19;;;-5.00;96.29
75247;BME280;63844;50.042;19.224;2024-01-30T04:33:36;100761.44;;;-5.00;96.32
75247;BME280;63844;50.042;19.224;2024-01-30T04:35:13;100761.45;;;-4.99;95.75
75247;BME280;63844;50.042;19.224;2024-01-30T04:36:49;100763.61;;;-5.02;95.77
75247;BME280;63844;50.042;19.224;2024-01-30T04:38:26;100762.22;;;-5.03;95.87
75247;BME280;63844;50.042;19.224;2024-01-30T04:40:03;100765.34;;;-5.02;96.06
75247;BME280;63844;50.042;19.224;2024-01-30T04:41:40;100763.94;;;-5.03;95.88
75247;BME280;63844;50.042;19.224;2024-01-30T04:43:16;100767.33;;;-5.06;95.93
75247;BME280;63844;50.042;19.224;2024-01-30T04:44:53;100765.23;;;-5.06;96.57
75247;BME280;63844;50.042;19.224;2024-01-30T04:46:29;100765.73;;;-5.07;96.47
75247;BME280;63844;50.042;19.224;2024-01-30T04:48:06;100763.31;;;-5.07;96.17
75247;BME280;63844;50.042;19.224;2024-01-30T04:49:42;100763.61;;;-5.09;95.85
75247;BME280;63844;50.042;19.224;2024-01-30T04:51:19;100766.33;;;-5.10;95.39
75247;BME280;63844;50.042;19.224;2024-01-30T04:52:55;100769.77;;;-5.11;96.08
75247;BME280;63844;50.042;19.224;2024-01-30T04:54:32;100766.10;;;-5.12;96.00
75247;BME280;63844;50.042;19.224;2024-01-30T04:56:09;100768.34;;;-5.13;95.64
75247;BME280;63844;50.042;19.224;2024-01-30T04:57:45;100770.59;;;-5.13;95.62
75247;BME280;63844;50.042;19.224;2024-01-30T04:59:22;100766.31;;;-5.11;95.86
75247;BME280;63844;50.042;19.224;2024-01-30T05:00:58;100769.77;;;-5.11;95.75
75247;BME280;63844;50.042;19.224;2024-01-30T05:02:35;100767.36;;;-5.11;95.77
75247;BME280;63844;50.042;19.224;2024-01-30T05:04:11;100772.02;;;-5.11;95.87
75247;BME280;63844;50.042;19.224;2024-01-30T05:05:48;100770.23;;;-5.13;95.71
75247;BME280;63844;50.042;19.224;2024-01-30T05:07:25;100766.76;;;-5.13;95.60
75247;BME280;63844;50.042;19.224;2024-01-30T05:09:02;100773.27;;;-5.16;95.44
75247;BME280;63844;50.042;19.224;2024-01-30T05:10:40;100768.31;;;-5.21;95.56
75247;BME280;63844;50.042;19.224;2024-01-30T05:12:16;100772.63;;;-5.21;95.94
75247;BME280;63844;50.042;19.224;2024-01-30T05:13:53;100768.02;;;-5.19;95.87
75247;BME280;63844;50.042;19.224;2024-01-30T05:15:29;100769.36;;;-5.21;95.63
75247;BME280;63844;50.042;19.224;2024-01-30T05:17:06;100771.21;;;-5.22;95.55
75247;BME280;63844;50.042;19.224;2024-01-30T05:18:44;100767.40;;;-5.23;95.72
75247;BME280;63844;50.042;19.224;2024-01-30T05:20:20;100767.73;;;-5.24;95.89
75247;BME280;63844;50.042;19.224;2024-01-30T05:21:56;100768.59;;;-5.24;95.42
75247;BME280;63844;50.042;19.224;2024-01-30T05:23:33;100767.85;;;-5.25;95.32
75247;BME280;63844;50.042;19.224;2024-01-30T05:25:10;100771.93;;;-5.27;95.60
75247;BME280;63844;50.042;19.224;2024-01-30T05:26:46;100771.98;;;-5.26;96.11
75247;BME280;63844;50.042;19.224;2024-01-30T05:28:24;100769.36;;;-5.27;95.59
75247;BME280;63844;50.042;19.224;2024-01-30T05:30:00;100767.10;;;-5.27;95.85
75247;BME280;63844;50.042;19.224;2024-01-30T05:31:37;100764.00;;;-5.27;95.63
75247;BME280;63844;50.042;19.224;2024-01-30T05:33:13;100759.33;;;-5.28;95.47
75247;BME280;63844;50.042;19.224;2024-01-30T05:34:50;100762.43;;;-5.28;95.49
75247;BME280;63844;50.042;19.224;2024-01-30T05:36:26;100760.02;;;-5.28;95.45
75247;BME280;63844;50.042;19.224;2024-01-30T05:38:03;100758.63;;;-5.28;95.90
75247;BME280;63844;50.042;19.224;2024-01-30T05:39:40;100761.21;;;-5.28;95.94
75247;BME280;63844;50.042;19.224;2024-01-30T05:41:17;100758.96;;;-5.29;95.93
75247;BME280;63844;50.042;19.224;2024-01-30T05:42:53;100756.36;;;-5.29;95.96
75247;BME280;63844;50.042;19.224;2024-01-30T05:44:30;100757.02;;;-5.30;95.77
75247;BME280;63844;50.042;19.224;2024-01-30T05:46:07;100757.36;;;-5.30;95.69
75247;BME280;63844;50.042;19.224;2024-01-30T05:47:43;100758.58;;;-5.30;95.29
75247;BME280;63844;50.042;19.224;2024-01-30T05:49:20;100757.50;;;-5.32;95.48
75247;BME280;63844;50.042;19.224;2024-01-30T05:50:56;100758.84;;;-5.33;95.73
75247;BME280;63844;50.042;19.224;2024-01-30T05:52:33;100757.45;;;-5.33;95.94
75247;BME280;63844;50.042;19.224;2024-01-30T05:54:09;100757.98;;;-5.33;96.09
75247;BME280;63844;50.042;19.224;2024-01-30T05:55:46;100760.66;;;-5.36;96.06
75247;BME280;63844;50.042;19.224;2024-01-30T05:57:22;100759.44;;;-5.36;96.29
75247;BME280;63844;50.042;19.224;2024-01-30T05:58:59;100755.63;;;-5.37;95.95
75247;BME280;63844;50.042;19.224;2024-01-30T06:00:35;100757.88;;;-5.37;95.48
75247;BME280;63844;50.042;19.224;2024-01-30T06:02:12;100756.65;;;-5.37;95.29
75247;BME280;63844;50.042;19.224;2024-01-30T06:03:48;100754.55;;;-5.38;95.43
75247;BME280;63844;50.042;19.224;2024-01-30T06:05:25;100753.84;;;-5.39;95.36
75247;BME280;63844;50.042;19.224;2024-01-30T06:07:01;100758.52;;;-5.38;95.55
75247;BME280;63844;50.042;19.224;2024-01-30T06:08:38;100760.22;;;-5.40;95.29
75247;BME280;63844;50.042;19.224;2024-01-30T06:10:14;100766.95;;;-5.39;96.25
75247;BME280;63844;50.042;19.224;2024-01-30T06:11:51;100766.43;;;-5.39;95.96
75247;BME280;63844;50.042;19.224;2024-01-30T06:13:27;100765.58;;;-5.39;96.05
75247;BME280;63844;50.042;19.224;2024-01-30T06:15:05;100771.22;;;-5.41;95.83
75247;BME280;63844;50.042;19.224;2024-01-30T06:16:42;100772.06;;;-5.42;96.36
75247;BME280;63844;50.042;19.224;2024-01-30T06:18:19;100774.88;;;-5.40;96.58
75247;BME280;63844;50.042;19.224;2024-01-30T06:19:56;100774.75;;;-5.38;96.83
75247;BME280;63844;50.042;19.224;2024-01-30T06:21:33;100776.99;;;-5.38;96.05
75247;BME280;63844;50.042;19.224;2024-01-30T06:23:12;100779.64;;;-5.42;95.99
75247;BME280;63844;50.042;19.224;2024-01-30T06:24:50;100785.66;;;-5.43;96.53
75247;BME280;63844;50.042;19.224;2024-01-30T06:26:27;100783.45;;;-5.42;96.13
75247;BME280;63844;50.042;19.224;2024-01-30T06:28:04;100783.27;;;-5.42;95.85
75247;BME280;63844;50.042;19.224;2024-01-30T06:29:42;100782.64;;;-5.40;95.91
75247;BME280;63844;50.042;19.224;2024-01-30T06:31:19;100785.27;;;-5.38;95.86
75247;BME280;63844;50.042;19.224;2024-01-30T06:32:55;100783.58;;;-5.37;95.48
75247;BME280;63844;50.042;19.224;2024-01-30T06:34:32;100784.83;;;-5.35;95.62
75247;BME280;63844;50.042;19.224;2024-01-30T06:36:09;100784.31;;;-5.35;95.51
75247;BME280;63844;50.042;19.224;2024-01-30T06:37:45;100787.79;;;-5.34;95.77
75247;BME280;63844;50.042;19.224;2024-01-30T06:39:22;100784.88;;;-5.34;95.49
75247;BME280;63844;50.042;19.224;2024-01-30T06:40:59;100787.29;;;-5.34;95.97
75247;BME280;63844;50.042;19.224;2024-01-30T06:42:35;100783.63;;;-5.35;95.57
75247;BME280;63844;50.042;19.224;2024-01-30T06:44:12;100780.65;;;-5.37;95.46
75247;BME280;63844;50.042;19.224;2024-01-30T06:45:49;100777.60;;;-5.35;95.78
75247;BME280;63844;50.042;19.224;2024-01-30T06:47:25;100779.60;;;-5.31;95.85
75247;BME280;63844;50.042;19.224;2024-01-30T06:49:02;100776.86;;;-5.30;95.74
75247;BME280;63844;50.042;19.224;2024-01-30T06:50:38;100780.89;;;-5.28;95.77
75247;BME280;63844;50.042;19.224;2024-01-30T06:52:14;100780.07;;;-5.27;95.93
75247;BME280;63844;50.042;19.224;2024-01-30T06:53:51;100784.09;;;-5.25;95.56
75247;BME280;63844;50.042;19.224;2024-01-30T06:55:27;100784.13;;;-5.23;95.59
75247;BME280;63844;50.042;19.224;2024-01-30T06:57:04;100783.86;;;-5.21;95.39
75247;BME280;63844;50.042;19.224;2024-01-30T06:58:43;100775.59;;;-5.20;95.78
75247;BME280;63844;50.042;19.224;2024-01-30T07:00:19;100779.63;;;-5.17;96.39
75247;BME280;63844;50.042;19.224;2024-01-30T07:01:56;100778.48;;;-5.14;96.55
75247;BME280;63844;50.042;19.224;2024-01-30T07:03:33;100774.91;;;-5.12;96.14
75247;BME280;63844;50.042;19.224;2024-01-30T07:05:09;100769.97;;;-5.10;96.22
75247;BME280;63844;50.042;19.224;2024-01-30T07:06:46;100776.12;;;-5.06;96.11
75247;BME280;63844;50.042;19.224;2024-01-30T07:08:22;100777.55;;;-5.04;95.88
75247;BME280;63844;50.042;19.224;2024-01-30T07:09:59;100777.24;;;-5.02;95.45
75247;BME280;63844;50.042;19.224;2024-01-30T07:11:35;100778.88;;;-5.00;95.66
75247;BME280;63844;50.042;19.224;2024-01-30T07:13:12;100778.80;;;-4.96;95.82
75247;BME280;63844;50.042;19.224;2024-01-30T07:14:48;100779.23;;;-4.92;95.86
75247;BME280;63844;50.042;19.224;2024-01-30T07:16:25;100782.46;;;-4.88;96.66
75247;BME280;63844;50.042;19.224;2024-01-30T07:18:01;100780.44;;;-4.85;96.51
75247;BME280;63844;50.042;19.224;2024-01-30T07:19:38;100781.35;;;-4.84;96.89
75247;BME280;63844;50.042;19.224;2024-01-30T07:21:14;100785.23;;;-4.80;97.70
75247;BME280;63844;50.042;19.224;2024-01-30T07:22:51;100782.55;;;-4.77;97.05
75247;BME280;63844;50.042;19.224;2024-01-30T07:24:28;100782.12;;;-4.74;96.69
75247;BME280;63844;50.042;19.224;2024-01-30T07:26:05;100781.55;;;-4.68;96.73
75247;BME280;63844;50.042;19.224;2024-01-30T07:27:43;100783.05;;;-4.63;97.19
75247;BME280;63844;50.042;19.224;2024-01-30T07:29:19;100783.20;;;-4.57;97.42
75247;BME280;63844;50.042;19.224;2024-01-30T07:30:55;100781.91;;;-4.53;97.05
75247;BME280;63844;50.042;19.224;2024-01-30T07:32:32;100780.47;;;-4.49;96.95
75247;BME280;63844;50.042;19.224;2024-01-30T07:34:09;100780.23;;;-4.44;96.89
75247;BME280;63844;50.042;19.224;2024-01-30T07:35:45;100777.59;;;-4.39;96.75
75247;BME280;63844;50.042;19.224;2024-01-30T07:37:22;100775.50;;;-4.32;97.05
75247;BME280;63844;50.042;19.224;2024-01-30T07:38:58;100780.64;;;-4.26;96.88
75247;BME280;63844;50.042;19.224;2024-01-30T07:40:35;100774.23;;;-4.20;96.89
75247;BME280;63844;50.042;19.224;2024-01-30T07:42:11;100774.70;;;-4.14;96.71
75247;BME280;63844;50.042;19.224;2024-01-30T07:43:48;100771.71;;;-4.08;96.75
75247;BME280;63844;50.042;19.224;2024-01-30T07:45:24;100765.42;;;-4.03;96.39
75247;BME280;63844;50.042;19.224;2024-01-30T07:47:03;100766.40;;;-3.98;96.60
75247;BME280;63844;50.042;19.224;2024-01-30T07:48:39;100765.16;;;-3.91;96.58
75247;BME280;63844;50.042;19.224;2024-01-30T07:50:16;100765.81;;;-3.85;96.70
75247;BME280;63844;50.042;19.224;2024-01-30T07:51:52;100764.91;;;-3.78;96.61
75247;BME280;63844;50.042;19.224;2024-01-30T07:53:29;100764.69;;;-3.72;96.62
75247;BME280;63844;50.042;19.224;2024-01-30T07:55:06;100764.98;;;-3.67;96.69
75247;BME280;63844;50.042;19.224;2024-01-30T07:56:44;100766.67;;;-3.59;96.63
75247;BME280;63844;50.042;19.224;2024-01-30T07:58:20;100767.68;;;-3.52;97.16
75247;BME280;63844;50.042;19.224;2024-01-30T07:59:57;100768.33;;;-3.46;97.06
75247;BME280;63844;50.042;19.224;2024-01-30T08:01:34;100761.35;;;-3.39;96.89
75247;BME280;63844;50.042;19.224;2024-01-30T08:03:11;100766.67;;;-3.31;97.14
75247;BME280;63844;50.042;19.224;2024-01-30T08:04:47;100762.85;;;-3.24;97.17
75247;BME280;63844;50.042;19.224;2024-01-30T08:06:25;100764.73;;;-3.16;97.05
75247;BME280;63844;50.042;19.224;2024-01-30T08:08:02;100768.67;;;-3.08;97.56
75247;BME280;63844;50.042;19.224;2024-01-30T08:09:38;100770.19;;;-3.01;97.74
75247;BME280;63844;50.042;19.224;2024-01-30T08:11:15;100764.98;;;-2.91;99.79
75247;BME280;63844;50.042;19.224;2024-01-30T08:12:51;100762.17;;;-2.84;100.00
75247;BME280;63844;50.042;19.224;2024-01-30T08:14:28;100762.98;;;-2.77;99.98
75247;BME280;63844;50.042;19.224;2024-01-30T08:16:05;100763.95;;;-2.70;99.79
75247;BME280;63844;50.042;19.224;2024-01-30T08:17:41;100767.40;;;-2.60;100.00
75247;BME280;63844;50.042;19.224;2024-01-30T08:19:18;100767.54;;;-2.52;100.00
75247;BME280;63844;50.042;19.224;2024-01-30T08:20:55;100765.60;;;-2.42;100.00
75247;BME280;63844;50.042;19.224;2024-01-30T08:22:31;100769.36;;;-2.34;100.00
75247;BME280;63844;50.042;19.224;2024-01-30T08:24:08;100768.24;;;-2.28;100.00
75247;BME280;63844;50.042;19.224;2024-01-30T08:25:44;100767.29;;;-2.21;100.00
75247;BME280;63844;50.042;19.224;2024-01-30T08:27:21;100768.81;;;-2.13;100.00
75247;BME280;63844;50.042;19.224;2024-01-30T08:28:58;100764.42;;;-2.04;100.00
75247;BME280;63844;50.042;19.224;2024-01-30T08:30:34;100764.36;;;-1.95;100.00
75247;BME280;63844;50.042;19.224;2024-01-30T08:32:11;100763.75;;;-1.88;100.00
75247;BME280;63844;50.042;19.224;2024-01-30T08:33:48;100762.48;;;-1.80;100.00
75247;BME280;63844;50.042;19.224;2024-01-30T08:35:24;100767.45;;;-1.71;100.00